createdAt,value
2023-05-21T00:00:39.911Z,17.73
2023-05-21T00:01:45.908Z,18.75
2023-05-21T00:02:48.132Z,20.05
2023-05-21T00:03:53.063Z,20.05
2023-05-21T00:04:55.217Z,19.50
2023-05-21T00:06:01.810Z,24.55
2023-05-21T00:07:04.432Z,18.02
2023-05-21T00:08:09.425Z,19.00
2023-05-21T00:09:13.233Z,21.17
2023-05-21T00:10:17.965Z,19.60
2023-05-21T00:11:20.292Z,19.50
2023-05-21T00:12:25.013Z,23.77
2023-05-21T00:13:29.811Z,20.55
2023-05-21T00:14:34.562Z,20.38
2023-05-21T00:15:36.845Z,20.73
2023-05-21T00:16:41.847Z,26.17
2023-05-21T00:17:44.295Z,18.92
2023-05-21T00:18:49.926Z,19.52
2023-05-21T00:19:52.249Z,19.23
2023-05-21T00:20:58.008Z,18.75
2023-05-21T00:22:02.497Z,19.33
2023-05-21T00:23:07.928Z,18.67
2023-05-21T00:24:10.114Z,19.38
2023-05-21T00:25:15.178Z,19.85
2023-05-21T00:26:17.280Z,20.80
2023-05-21T00:27:22.006Z,21.63
2023-05-21T00:28:24.085Z,22.92
2023-05-21T00:29:31.579Z,24.17
2023-05-21T00:30:33.742Z,22.15
2023-05-21T00:31:38.520Z,21.10
2023-05-21T00:32:40.686Z,22.20
2023-05-21T00:33:45.440Z,19.85
2023-05-21T00:34:48.433Z,21.83
2023-05-21T00:35:53.148Z,22.08
2023-05-21T00:36:56.054Z,20.27
2023-05-21T00:38:01.761Z,24.70
2023-05-21T00:39:04.863Z,22.15
2023-05-21T00:40:11.810Z,19.88
2023-05-21T00:41:14.196Z,24.70
2023-05-21T00:42:19.377Z,23.55
2023-05-21T00:43:26.307Z,24.33
2023-05-21T00:44:34.556Z,24.48
2023-05-21T00:45:37.554Z,25.33
2023-05-21T00:46:44.319Z,25.38
2023-05-21T00:47:48.659Z,22.10
2023-05-21T00:48:54.003Z,19.88
2023-05-21T00:49:56.303Z,23.00
2023-05-21T00:51:01.031Z,22.25
2023-05-21T00:52:03.267Z,22.63
2023-05-21T00:53:09.761Z,21.20
2023-05-21T00:54:12.291Z,21.83
2023-05-21T00:55:17.370Z,22.05
2023-05-21T00:56:20.462Z,22.45
2023-05-21T00:57:28.289Z,26.30
2023-05-21T00:58:31.259Z,23.75
2023-05-21T00:59:38.579Z,23.52
2023-05-21T01:00:40.877Z,21.38
2023-05-21T01:01:46.537Z,21.10
2023-05-21T01:02:50.088Z,22.10
2023-05-21T01:03:57.924Z,20.40
2023-05-21T01:05:00.612Z,22.58
2023-05-21T01:06:05.395Z,20.63
2023-05-21T01:07:09.750Z,21.67
2023-05-21T01:08:15.188Z,23.90
2023-05-21T01:09:18.115Z,21.77
2023-05-21T01:10:22.906Z,23.15
2023-05-21T01:11:34.008Z,24.85
2023-05-21T01:12:45.284Z,23.05
2023-05-21T01:13:48.704Z,21.67
2023-05-21T01:14:57.821Z,23.80
2023-05-21T01:16:01.509Z,23.30
2023-05-21T01:17:11.965Z,26.05
2023-05-21T01:18:14.657Z,23.48
2023-05-21T01:19:22.475Z,25.65
2023-05-21T01:20:25.103Z,26.02
2023-05-21T01:21:32.346Z,24.60
2023-05-21T01:22:36.299Z,25.63
2023-05-21T01:23:43.731Z,22.60
2023-05-21T01:24:48.417Z,24.35
2023-05-21T01:25:53.145Z,23.05
2023-05-21T01:26:55.511Z,22.55
2023-05-21T01:28:00.224Z,21.70
2023-05-21T01:29:02.672Z,21.90
2023-05-21T01:30:08.641Z,25.92
2023-05-21T01:31:23.139Z,23.70
2023-05-21T01:32:35.749Z,28.10
2023-05-21T01:33:45.721Z,46.20
2023-05-21T01:34:59.346Z,29.88
2023-05-21T01:36:06.271Z,23.75
2023-05-21T01:37:19.885Z,43.75
2023-05-21T01:38:27.625Z,27.25
2023-05-21T01:39:38.724Z,24.08
2023-05-21T01:40:45.914Z,24.85
2023-05-21T01:41:52.586Z,23.23
2023-05-21T01:42:54.898Z,24.75
2023-05-21T01:44:00.232Z,27.42
2023-05-21T01:45:06.438Z,23.38
2023-05-21T01:46:13.722Z,24.58
2023-05-21T01:47:18.209Z,24.13
2023-05-21T01:48:23.144Z,33.20
2023-05-21T01:49:25.714Z,27.90
2023-05-21T01:50:32.077Z,29.95
2023-05-21T01:51:35.012Z,26.42
2023-05-21T01:52:40.150Z,27.48
2023-05-21T01:53:44.913Z,27.15
2023-05-21T01:54:51.443Z,23.42
2023-05-21T01:55:56.348Z,24.23
2023-05-21T01:56:58.465Z,28.00
2023-05-21T01:58:03.529Z,24.40
2023-05-21T01:59:06.091Z,25.42
2023-05-21T02:00:12.518Z,23.73
2023-05-21T02:01:14.630Z,23.65
2023-05-21T02:02:19.318Z,27.83
2023-05-21T02:03:22.126Z,24.77
2023-05-21T02:04:26.836Z,26.45
2023-05-21T02:05:29.311Z,39.25
2023-05-21T02:06:36.120Z,25.77
2023-05-21T02:07:38.894Z,27.77
2023-05-21T02:08:45.772Z,23.05
2023-05-21T02:09:50.602Z,23.50
2023-05-21T02:10:55.265Z,22.20
2023-05-21T02:11:58.449Z,24.83
2023-05-21T02:13:03.573Z,25.27
2023-05-21T02:14:05.715Z,342.40
2023-05-21T02:15:10.967Z,841.53
2023-05-21T02:16:15.058Z,825.13
2023-05-21T02:17:20.051Z,632.85
2023-05-21T02:18:22.552Z,594.75
2023-05-21T02:19:27.466Z,23.00
2023-05-21T02:20:30.443Z,25.23
2023-05-21T02:21:35.271Z,23.48
2023-05-21T02:22:37.856Z,22.88
2023-05-21T02:23:42.789Z,21.90
2023-05-21T02:24:45.642Z,23.98
2023-05-21T02:25:53.135Z,22.52
2023-05-21T02:26:55.241Z,20.50
2023-05-21T02:27:59.972Z,23.50
2023-05-21T02:29:02.077Z,22.23
2023-05-21T02:30:08.973Z,21.98
2023-05-21T02:31:11.801Z,21.83
2023-05-21T02:32:17.130Z,23.23
2023-05-21T02:33:20.445Z,21.63
2023-05-21T02:34:26.166Z,24.00
2023-05-21T02:35:28.463Z,24.35
2023-05-21T02:36:33.494Z,23.75
2023-05-21T02:37:36.669Z,24.20
2023-05-21T02:38:43.895Z,22.17
2023-05-21T02:39:46.147Z,22.00
2023-05-21T02:40:53.860Z,21.88
2023-05-21T02:41:56.079Z,22.15
2023-05-21T02:43:00.783Z,22.50
2023-05-21T02:44:02.882Z,21.80
2023-05-21T02:45:08.464Z,22.25
2023-05-21T02:46:10.793Z,26.27
2023-05-21T02:47:15.546Z,22.45
2023-05-21T02:48:17.660Z,21.80
2023-05-21T02:49:22.368Z,25.05
2023-05-21T02:50:24.527Z,23.98
2023-05-21T02:51:29.210Z,23.15
2023-05-21T02:52:31.488Z,25.75
2023-05-21T02:53:36.189Z,24.27
2023-05-21T02:54:38.258Z,24.02
2023-05-21T02:55:42.992Z,32.03
2023-05-21T02:56:47.661Z,21.92
2023-05-21T02:57:52.412Z,23.70
2023-05-21T02:58:54.759Z,23.20
2023-05-21T02:59:59.451Z,24.40
2023-05-21T03:01:01.836Z,23.63
2023-05-21T03:02:06.585Z,22.98
2023-05-21T03:03:08.867Z,22.95
2023-05-21T03:04:13.599Z,24.30
2023-05-21T03:05:15.741Z,24.70
2023-05-21T03:06:20.471Z,25.27
2023-05-21T03:07:22.677Z,25.65
2023-05-21T03:08:27.699Z,24.77
2023-05-21T03:09:29.751Z,25.20
2023-05-21T03:10:34.482Z,24.77
2023-05-21T03:11:38.946Z,22.77
2023-05-21T03:12:46.196Z,25.05
2023-05-21T03:13:48.391Z,26.13
2023-05-21T03:14:54.126Z,24.45
2023-05-21T03:15:56.657Z,24.42
2023-05-21T03:17:01.400Z,25.20
2023-05-21T03:18:06.396Z,23.58
2023-05-21T03:19:08.711Z,24.65
2023-05-21T03:20:17.315Z,24.80
2023-05-21T03:21:22.833Z,23.33
2023-05-21T03:22:27.512Z,27.90
2023-05-21T03:23:29.602Z,25.27
2023-05-21T03:24:34.472Z,23.92
2023-05-21T03:25:37.238Z,26.77
2023-05-21T03:26:42.051Z,23.05
2023-05-21T03:27:46.698Z,21.65
2023-05-21T03:28:51.357Z,27.52
2023-05-21T03:29:55.274Z,24.55
2023-05-21T03:31:00.139Z,22.23
2023-05-21T03:32:02.756Z,24.65
2023-05-21T03:33:07.860Z,23.08
2023-05-21T03:34:10.019Z,22.73
2023-05-21T03:35:14.740Z,26.27
2023-05-21T03:36:19.767Z,22.35
2023-05-21T03:37:21.921Z,23.48
2023-05-21T03:38:26.561Z,25.85
2023-05-21T03:39:28.731Z,24.15
2023-05-21T03:40:33.402Z,23.48
2023-05-21T03:41:35.558Z,25.00
2023-05-21T03:42:40.244Z,24.25
2023-05-21T03:43:44.945Z,22.48
2023-05-21T03:44:49.842Z,23.40
2023-05-21T03:45:52.223Z,23.33
2023-05-21T03:46:56.942Z,23.00
2023-05-21T03:47:59.192Z,23.13
2023-05-21T03:49:03.979Z,22.17
2023-05-21T03:50:07.867Z,24.30
2023-05-21T03:51:13.455Z,22.60
2023-05-21T03:52:15.689Z,23.02
2023-05-21T03:53:20.604Z,23.17
2023-05-21T03:54:22.682Z,24.88
2023-05-21T03:55:27.358Z,23.15
2023-05-21T03:56:29.532Z,23.70
2023-05-21T03:57:34.230Z,24.27
2023-05-21T03:58:36.983Z,23.45
2023-05-21T03:59:44.244Z,24.05
2023-05-21T04:00:46.330Z,23.25
2023-05-21T04:01:52.367Z,22.38
2023-05-21T04:02:54.745Z,23.42
2023-05-21T04:03:59.593Z,22.27
2023-05-21T04:05:01.808Z,23.70
2023-05-21T04:06:07.089Z,21.98
2023-05-21T04:07:14.678Z,21.58
2023-05-21T04:08:19.480Z,21.65
2023-05-21T04:09:21.717Z,24.67
2023-05-21T04:10:27.162Z,28.17
2023-05-21T04:11:29.231Z,24.02
2023-05-21T04:12:33.947Z,26.45
2023-05-21T04:13:36.492Z,27.50
2023-05-21T04:14:41.236Z,22.85
2023-05-21T04:15:46.981Z,23.70
2023-05-21T04:16:51.980Z,24.15
2023-05-21T04:17:54.889Z,22.88
2023-05-21T04:18:59.829Z,26.48
2023-05-21T04:20:02.120Z,22.40
2023-05-21T04:21:07.738Z,22.45
2023-05-21T04:22:10.934Z,22.75
2023-05-21T04:23:15.617Z,22.75
2023-05-21T04:24:17.827Z,21.13
2023-05-21T04:25:23.477Z,17.90
2023-05-21T04:26:25.572Z,29.13
2023-05-21T04:27:30.279Z,22.20
2023-05-21T04:28:33.419Z,23.90
2023-05-21T04:29:42.920Z,25.48
2023-05-21T04:30:48.032Z,20.35
2023-05-21T04:31:52.920Z,21.58
2023-05-21T04:32:55.596Z,23.05
2023-05-21T04:34:00.312Z,19.98
2023-05-21T04:35:02.459Z,21.70
2023-05-21T04:36:10.041Z,20.70
2023-05-21T04:37:12.451Z,19.77
2023-05-21T04:38:19.962Z,21.35
2023-05-21T04:39:22.145Z,20.35
2023-05-21T04:40:27.188Z,20.08
2023-05-21T04:41:29.370Z,21.73
2023-05-21T04:42:34.235Z,23.45
2023-05-21T04:43:37.034Z,21.02
2023-05-21T04:44:44.682Z,19.67
2023-05-21T04:45:49.808Z,19.08
2023-05-21T04:46:55.020Z,20.13
2023-05-21T04:48:00.817Z,19.08
2023-05-21T04:49:05.832Z,18.60
2023-05-21T04:50:09.166Z,18.42
2023-05-21T04:51:15.237Z,20.33
2023-05-21T04:52:17.696Z,24.83
2023-05-21T04:53:22.410Z,19.08
2023-05-21T04:54:24.750Z,20.58
2023-05-21T04:55:29.896Z,23.63
2023-05-21T04:56:32.107Z,22.85
2023-05-21T04:57:36.874Z,22.60
2023-05-21T04:58:40.793Z,18.65
2023-05-21T04:59:45.610Z,21.73
2023-05-21T05:00:52.120Z,22.02
2023-05-21T05:01:56.912Z,23.42
2023-05-21T05:02:59.152Z,29.70
2023-05-21T05:04:04.529Z,21.25
2023-05-21T05:05:07.182Z,22.65
2023-05-21T05:06:11.858Z,20.23
2023-05-21T05:07:13.998Z,20.92
2023-05-21T05:08:19.024Z,21.38
2023-05-21T05:09:21.759Z,21.77
2023-05-21T05:10:26.486Z,20.08
2023-05-21T05:11:28.617Z,28.20
2023-05-21T05:12:33.269Z,23.65
2023-05-21T05:13:35.536Z,20.08
2023-05-21T05:14:40.201Z,20.48
2023-05-21T05:15:45.295Z,19.65
2023-05-21T05:16:50.969Z,18.58
2023-05-21T05:17:56.803Z,20.38
2023-05-21T05:18:59.032Z,18.92
2023-05-21T05:20:04.018Z,18.10
2023-05-21T05:21:06.340Z,18.13
2023-05-21T05:22:13.349Z,22.83
2023-05-21T05:23:15.782Z,18.55
2023-05-21T05:24:20.462Z,17.23
2023-05-21T05:25:22.539Z,25.52
2023-05-21T05:26:27.266Z,20.63
2023-05-21T05:27:29.350Z,18.75
2023-05-21T05:28:34.038Z,23.05
2023-05-21T05:29:36.062Z,20.15
2023-05-21T05:30:40.769Z,18.42
2023-05-21T05:31:42.960Z,20.92
2023-05-21T05:32:50.272Z,17.27
2023-05-21T05:33:52.392Z,16.52
2023-05-21T05:34:57.159Z,16.55
2023-05-21T05:35:59.248Z,18.55
2023-05-21T05:37:04.486Z,17.15
2023-05-21T05:38:09.203Z,16.67
2023-05-21T05:39:13.994Z,17.45
2023-05-21T05:40:16.351Z,17.92
2023-05-21T05:41:21.213Z,16.90
2023-05-21T05:42:23.354Z,18.92
2023-05-21T05:43:28.377Z,20.30
2023-05-21T05:44:30.505Z,18.38
2023-05-21T05:45:36.455Z,19.92
2023-05-21T05:46:39.015Z,21.27
2023-05-21T05:47:43.993Z,18.13
2023-05-21T05:48:48.762Z,16.83
2023-05-21T05:49:53.515Z,16.85
2023-05-21T05:50:56.249Z,16.52
2023-05-21T05:52:01.351Z,16.00
2023-05-21T05:53:03.526Z,16.77
2023-05-21T05:54:08.194Z,17.42
2023-05-21T05:55:12.153Z,16.30
2023-05-21T05:56:17.338Z,17.27
2023-05-21T05:57:19.514Z,16.35
2023-05-21T05:58:24.209Z,17.60
2023-05-21T05:59:26.344Z,18.20
2023-05-21T06:00:31.080Z,21.35
2023-05-21T06:01:33.210Z,20.77
2023-05-21T06:02:37.978Z,17.90
2023-05-21T06:03:40.199Z,17.17
2023-05-21T06:04:47.706Z,18.85
2023-05-21T06:05:50.282Z,16.45
2023-05-21T06:06:55.125Z,20.98
2023-05-21T06:07:57.208Z,15.00
2023-05-21T06:09:01.874Z,16.30
2023-05-21T06:10:05.679Z,17.85
2023-05-21T06:11:11.185Z,15.52
2023-05-21T06:12:16.136Z,15.93
2023-05-21T06:13:20.823Z,20.10
2023-05-21T06:14:22.962Z,21.27
2023-05-21T06:15:27.637Z,17.75
2023-05-21T06:16:31.692Z,16.88
2023-05-21T06:17:36.639Z,17.90
2023-05-21T06:18:39.110Z,18.50
2023-05-21T06:19:45.420Z,15.80
2023-05-21T06:20:50.136Z,16.95
2023-05-21T06:21:54.857Z,16.17
2023-05-21T06:22:56.957Z,16.98
2023-05-21T06:24:01.657Z,19.33
2023-05-21T06:25:04.103Z,15.52
2023-05-21T06:26:09.255Z,18.00
2023-05-21T06:27:11.381Z,16.10
2023-05-21T06:28:16.066Z,14.90
2023-05-21T06:29:18.422Z,17.13
2023-05-21T06:30:23.263Z,17.70
2023-05-21T06:31:25.358Z,17.25
2023-05-21T06:32:30.116Z,16.02
2023-05-21T06:33:32.311Z,17.50
2023-05-21T06:34:37.141Z,16.23
2023-05-21T06:35:40.448Z,17.17
2023-05-21T06:36:47.910Z,15.60
2023-05-21T06:37:50.119Z,14.75
2023-05-21T06:38:54.815Z,14.60
2023-05-21T06:39:56.899Z,15.93
2023-05-21T06:41:01.772Z,14.70
2023-05-21T06:42:04.077Z,13.95
2023-05-21T06:43:08.909Z,18.13
2023-05-21T06:44:11.282Z,19.25
2023-05-21T06:45:15.973Z,15.98
2023-05-21T06:46:18.192Z,16.40
2023-05-21T06:47:23.042Z,14.18
2023-05-21T06:48:25.207Z,16.88
2023-05-21T06:49:29.861Z,15.88
2023-05-21T06:50:32.249Z,16.27
2023-05-21T06:51:37.040Z,18.85
2023-05-21T06:52:41.744Z,14.77
2023-05-21T06:53:46.456Z,14.30
2023-05-21T06:54:48.572Z,15.20
2023-05-21T06:55:54.381Z,13.65
2023-05-21T06:56:56.472Z,14.07
2023-05-21T06:58:01.573Z,18.02
2023-05-21T06:59:03.765Z,13.57
2023-05-21T07:00:09.738Z,13.95
2023-05-21T07:01:12.087Z,15.45
2023-05-21T07:02:17.148Z,14.63
2023-05-21T07:03:19.425Z,13.85
2023-05-21T07:04:24.250Z,15.23
2023-05-21T07:05:26.392Z,15.20
2023-05-21T07:06:31.093Z,16.80
2023-05-21T07:07:35.009Z,16.90
2023-05-21T07:08:42.282Z,14.32
2023-05-21T07:09:44.381Z,13.68
2023-05-21T07:10:49.151Z,13.10
2023-05-21T07:11:53.181Z,13.52
2023-05-21T07:12:57.853Z,15.45
2023-05-21T07:14:01.026Z,17.70
2023-05-21T07:15:05.841Z,13.45
2023-05-21T07:16:08.342Z,14.55
2023-05-21T07:17:13.136Z,14.15
2023-05-21T07:18:18.002Z,17.05
2023-05-21T07:19:20.142Z,14.27
2023-05-21T07:20:24.848Z,14.30
2023-05-21T07:21:26.958Z,17.27
2023-05-21T07:22:31.711Z,16.67
2023-05-21T07:23:33.857Z,15.68
2023-05-21T07:24:41.216Z,18.08
2023-05-21T07:25:43.377Z,15.00
2023-05-21T07:26:48.051Z,15.32
2023-05-21T07:27:50.285Z,15.23
2023-05-21T07:28:55.102Z,17.30
2023-05-21T07:29:57.271Z,14.93
2023-05-21T07:31:02.037Z,13.23
2023-05-21T07:32:04.598Z,14.95
2023-05-21T07:33:09.442Z,18.00
2023-05-21T07:34:14.196Z,13.98
2023-05-21T07:35:16.629Z,15.88
2023-05-21T07:36:21.333Z,14.13
2023-05-21T07:37:23.499Z,14.75
2023-05-21T07:38:28.307Z,17.27
2023-05-21T07:39:30.443Z,15.85
2023-05-21T07:40:37.904Z,16.45
2023-05-21T07:41:40.079Z,18.48
2023-05-21T07:42:44.726Z,12.82
2023-05-21T07:43:49.449Z,16.30
2023-05-21T07:44:51.730Z,15.95
2023-05-21T07:45:56.413Z,13.65
2023-05-21T07:46:58.752Z,18.17
2023-05-21T07:48:03.526Z,15.93
2023-05-21T07:49:05.640Z,14.75
2023-05-21T07:50:11.000Z,15.27
2023-05-21T07:51:15.874Z,17.05
2023-05-21T07:52:20.782Z,15.43
2023-05-21T07:53:22.994Z,19.30
2023-05-21T07:54:27.672Z,16.95
2023-05-21T07:55:29.759Z,17.95
2023-05-21T07:56:37.279Z,16.55
2023-05-21T07:57:40.610Z,16.42
2023-05-21T07:58:46.130Z,18.50
2023-05-21T07:59:48.281Z,14.50
2023-05-21T08:00:53.380Z,13.85
2023-05-21T08:01:55.757Z,16.67
2023-05-21T08:03:00.568Z,16.13
2023-05-21T08:04:06.232Z,14.18
2023-05-21T08:05:12.361Z,15.35
2023-05-21T08:06:17.093Z,13.45
2023-05-21T08:07:20.056Z,16.48
2023-05-21T08:08:24.896Z,14.95
2023-05-21T08:09:27.065Z,16.23
2023-05-21T08:10:31.987Z,21.38
2023-05-21T08:11:36.744Z,28.33
2023-05-21T08:12:41.486Z,18.30
2023-05-21T08:13:43.621Z,18.35
2023-05-21T08:14:48.552Z,17.23
2023-05-21T08:15:53.148Z,16.98
2023-05-21T08:16:58.704Z,24.88
2023-05-21T08:18:00.842Z,15.75
2023-05-21T08:19:05.789Z,17.08
2023-05-21T08:20:09.161Z,25.15
2023-05-21T08:21:13.977Z,15.07
2023-05-21T08:22:16.125Z,19.48
2023-05-21T08:23:20.969Z,18.00
2023-05-21T08:24:23.766Z,15.05
2023-05-21T08:25:28.452Z,15.85
2023-05-21T08:26:31.282Z,16.83
2023-05-21T08:27:38.566Z,18.75
2023-05-21T08:28:40.701Z,15.88
2023-05-21T08:29:46.157Z,15.02
2023-05-21T08:30:48.298Z,20.67
2023-05-21T08:31:53.095Z,16.00
2023-05-21T08:32:55.608Z,15.38
2023-05-21T08:34:00.387Z,18.40
2023-05-21T08:35:02.546Z,16.02
2023-05-21T08:36:08.395Z,15.00
2023-05-21T08:37:10.612Z,19.92
2023-05-21T08:38:17.059Z,17.08
2023-05-21T08:39:19.168Z,16.13
2023-05-21T08:40:24.060Z,18.40
2023-05-21T08:41:27.223Z,25.40
2023-05-21T08:42:46.430Z,17.58
2023-05-21T08:43:58.689Z,16.23
2023-05-21T08:45:01.270Z,15.70
2023-05-21T08:46:07.482Z,16.48
2023-05-21T08:47:11.351Z,17.63
2023-05-21T08:48:19.720Z,14.60
2023-05-21T08:49:27.458Z,16.55
2023-05-21T08:50:34.307Z,17.08
2023-05-21T08:51:36.561Z,18.98
2023-05-21T08:52:41.433Z,19.17
2023-05-21T08:53:47.240Z,15.02
2023-05-21T08:54:51.418Z,18.63
2023-05-21T08:55:57.677Z,14.88
2023-05-21T08:57:02.250Z,14.82
2023-05-21T08:58:07.813Z,18.05
2023-05-21T08:59:13.226Z,15.88
2023-05-21T09:00:20.946Z,16.17
2023-05-21T09:01:25.630Z,16.10
2023-05-21T09:02:32.748Z,18.70
2023-05-21T09:03:39.556Z,17.35
2023-05-21T09:04:49.444Z,20.92
2023-05-21T09:05:55.355Z,20.33
2023-05-21T09:06:58.258Z,16.27
2023-05-21T09:08:09.526Z,20.23
2023-05-21T09:09:18.108Z,15.25
2023-05-21T09:10:29.033Z,16.83
2023-05-21T09:11:31.601Z,17.17
2023-05-21T09:12:36.429Z,15.98
2023-05-21T09:13:39.200Z,18.70
2023-05-21T09:14:47.003Z,17.92
2023-05-21T09:15:49.428Z,17.13
2023-05-21T09:16:54.260Z,16.30
2023-05-21T09:17:56.877Z,21.02
2023-05-21T09:19:04.636Z,20.70
2023-05-21T09:20:12.584Z,21.42
2023-05-21T09:21:27.573Z,20.23
2023-05-21T09:22:29.761Z,76.13
2023-05-21T09:23:35.871Z,29.52
2023-05-21T09:24:38.031Z,28.75
2023-05-21T09:25:42.768Z,25.65
2023-05-21T09:26:44.949Z,29.58
2023-05-21T09:27:49.649Z,22.17
2023-05-21T09:28:52.473Z,23.35
2023-05-21T09:30:00.357Z,27.20
2023-05-21T09:31:04.032Z,22.08
2023-05-21T09:32:13.181Z,21.63
2023-05-21T09:33:25.289Z,26.55
2023-05-21T09:34:30.912Z,21.17
2023-05-21T09:35:38.269Z,25.40
2023-05-21T09:36:40.393Z,207.82
2023-05-21T09:37:46.330Z,175.30
2023-05-21T09:38:48.783Z,796.42
2023-05-21T09:39:53.538Z,614.38
2023-05-21T09:40:59.256Z,201.93
2023-05-21T09:42:01.468Z,999.90
2023-05-21T09:43:06.239Z,998.42
2023-05-21T09:44:08.567Z,19.48
2023-05-21T09:45:20.294Z,24.45
2023-05-21T09:46:26.572Z,999.90
2023-05-21T09:47:31.274Z,407.23
2023-05-21T09:48:34.898Z,999.90
2023-05-21T09:49:40.941Z,999.90
2023-05-21T09:50:43.063Z,999.90
2023-05-21T09:51:48.004Z,16.73
2023-05-21T09:52:53.162Z,21.30
2023-05-21T09:54:00.108Z,17.05
2023-05-21T09:55:03.527Z,15.88
2023-05-21T09:56:09.326Z,20.20
2023-05-21T09:57:14.111Z,17.77
2023-05-21T09:58:18.933Z,23.88
2023-05-21T09:59:21.511Z,19.23
2023-05-21T10:00:31.586Z,20.15
2023-05-21T10:01:37.689Z,22.42
2023-05-21T10:02:44.506Z,26.30
2023-05-21T10:03:53.226Z,24.55
2023-05-21T10:04:57.352Z,23.65
2023-05-21T10:06:03.598Z,37.17
2023-05-21T10:07:05.964Z,39.03
2023-05-21T10:08:14.525Z,65.32
2023-05-21T10:09:19.581Z,40.28
2023-05-21T10:10:24.894Z,18.25
2023-05-21T10:11:30.938Z,19.40
2023-05-21T10:12:36.679Z,23.23
2023-05-21T10:13:47.465Z,20.67
2023-05-21T10:14:54.674Z,18.27
2023-05-21T10:16:05.610Z,21.02
2023-05-21T10:17:08.152Z,16.85
2023-05-21T10:18:14.269Z,18.23
2023-05-21T10:19:17.180Z,24.52
2023-05-21T10:20:22.889Z,18.35
2023-05-21T10:21:26.381Z,19.20
2023-05-21T10:22:32.098Z,27.00
2023-05-21T10:23:36.588Z,23.02
2023-05-21T10:24:43.046Z,23.88
2023-05-21T10:25:46.318Z,25.88
2023-05-21T10:26:51.793Z,20.60
2023-05-21T10:27:56.137Z,19.98
2023-05-21T10:29:00.996Z,21.85
2023-05-21T10:30:06.084Z,21.23
2023-05-21T10:31:14.254Z,17.17
2023-05-21T10:32:17.155Z,25.40
2023-05-21T10:33:25.949Z,37.80
2023-05-21T10:34:29.289Z,73.28
2023-05-21T10:35:35.400Z,246.55
2023-05-21T10:36:38.764Z,513.75
2023-05-21T10:37:46.540Z,982.55
2023-05-21T10:38:48.831Z,971.63
2023-05-21T10:39:53.732Z,999.90
2023-05-21T10:40:56.429Z,999.90
2023-05-21T10:42:11.351Z,999.90
2023-05-21T10:43:37.151Z,999.90
2023-05-21T10:44:56.584Z,23.52
2023-05-21T10:46:28.429Z,386.85
2023-05-21T10:48:05.495Z,999.90
2023-05-21T10:49:38.165Z,268.27
2023-05-21T10:51:13.229Z,20.10
2023-05-21T10:52:33.766Z,25.58
2023-05-21T10:53:48.450Z,25.40
2023-05-21T10:55:14.142Z,116.28
2023-05-21T10:56:23.446Z,522.03
2023-05-21T10:57:47.511Z,999.90
2023-05-21T10:59:08.300Z,999.90
2023-05-21T11:00:15.348Z,999.90
2023-05-21T11:01:23.381Z,999.90
2023-05-21T11:02:27.691Z,999.90
2023-05-21T11:03:36.669Z,999.90
2023-05-21T11:04:43.520Z,999.90
2023-05-21T11:05:55.400Z,999.90
2023-05-21T11:06:59.287Z,999.90
2023-05-21T11:08:04.561Z,999.90
2023-05-21T11:09:15.556Z,793.20
2023-05-21T11:10:37.985Z,790.30
2023-05-21T11:11:48.736Z,982.03
2023-05-21T11:13:07.623Z,989.03
2023-05-21T11:14:39.684Z,999.90
2023-05-21T11:16:08.096Z,999.90
2023-05-21T11:17:19.299Z,953.80
2023-05-21T11:18:21.394Z,999.90
2023-05-21T11:19:37.547Z,999.90
2023-05-21T11:20:42.607Z,940.08
2023-05-21T11:21:53.734Z,930.13
2023-05-21T11:22:58.482Z,929.85
2023-05-21T11:24:05.411Z,658.25
2023-05-21T11:25:12.707Z,473.02
2023-05-21T11:26:16.522Z,688.47
2023-05-21T11:27:36.204Z,541.28
2023-05-21T11:28:38.315Z,736.78
2023-05-21T11:29:44.970Z,812.33
2023-05-21T11:31:23.332Z,917.47
2023-05-21T11:32:31.802Z,944.67
2023-05-21T11:33:34.162Z,980.65
2023-05-21T11:34:46.550Z,949.17
2023-05-21T11:35:59.480Z,726.30
2023-05-21T11:37:30.539Z,882.70
2023-05-21T11:38:35.252Z,999.90
2023-05-21T11:39:40.486Z,990.85
2023-05-21T11:40:55.473Z,803.00
2023-05-21T11:42:00.940Z,804.28
2023-05-21T11:43:07.056Z,754.80
2023-05-21T11:44:09.291Z,706.17
2023-05-21T11:45:14.521Z,776.65
2023-05-21T11:46:17.177Z,552.83
2023-05-21T11:47:22.595Z,750.60
2023-05-21T11:48:32.384Z,459.55
2023-05-21T11:49:35.861Z,402.98
2023-05-21T11:50:42.484Z,542.72
2023-05-21T11:51:44.750Z,455.45
2023-05-21T11:52:49.560Z,534.58
2023-05-21T11:53:51.764Z,551.08
2023-05-21T11:54:58.061Z,550.33
2023-05-21T11:56:02.424Z,647.78
2023-05-21T11:57:10.097Z,457.50
2023-05-21T11:58:19.418Z,550.10
2023-05-21T11:59:21.721Z,243.38
2023-05-21T12:00:26.833Z,156.48
2023-05-21T12:01:31.323Z,146.18
2023-05-21T12:02:36.083Z,104.22
2023-05-21T12:03:43.558Z,122.38
2023-05-21T12:04:46.994Z,171.40
2023-05-21T12:05:52.653Z,208.68
2023-05-21T12:06:55.612Z,316.77
2023-05-21T12:08:00.258Z,204.50
2023-05-21T12:09:02.435Z,236.60
2023-05-21T12:10:08.125Z,360.63
2023-05-21T12:11:10.401Z,304.25
2023-05-21T12:12:16.964Z,434.50
2023-05-21T12:13:22.735Z,528.42
2023-05-21T12:14:24.955Z,512.40
2023-05-21T12:15:30.035Z,619.08
2023-05-21T12:16:32.989Z,419.55
2023-05-21T12:17:37.849Z,481.05
2023-05-21T12:18:42.823Z,514.40
2023-05-21T12:19:49.088Z,367.90
2023-05-21T12:20:54.883Z,317.92
2023-05-21T12:21:57.588Z,479.85
2023-05-21T12:23:02.431Z,466.17
2023-05-21T12:24:04.789Z,477.15
2023-05-21T12:25:10.917Z,394.20
2023-05-21T12:26:13.901Z,332.33
2023-05-21T12:27:18.845Z,346.45
2023-05-21T12:28:21.643Z,353.90
2023-05-21T12:29:26.614Z,279.20
2023-05-21T12:30:31.783Z,267.63
2023-05-21T12:31:34.045Z,492.50
2023-05-21T12:32:38.962Z,525.22
2023-05-21T12:33:44.971Z,524.38
2023-05-21T12:34:50.889Z,668.63
2023-05-21T12:35:53.057Z,560.60
2023-05-21T12:36:57.822Z,306.25
2023-05-21T12:38:04.835Z,357.98
2023-05-21T12:39:11.165Z,334.95
2023-05-21T12:40:16.654Z,227.18
2023-05-21T12:41:19.457Z,212.55
2023-05-21T12:42:30.214Z,202.43
2023-05-21T12:43:32.563Z,289.80
2023-05-21T12:44:37.365Z,457.02
2023-05-21T12:45:39.864Z,593.75
2023-05-21T12:46:44.647Z,528.90
2023-05-21T12:47:56.562Z,521.67
2023-05-21T12:49:01.521Z,436.33
2023-05-21T12:50:11.976Z,462.83
2023-05-21T12:51:14.208Z,321.42
2023-05-21T12:52:22.800Z,498.95
2023-05-21T12:53:24.869Z,785.75
2023-05-21T12:54:33.326Z,938.78
2023-05-21T12:55:36.299Z,981.53
2023-05-21T12:56:48.168Z,960.88
2023-05-21T12:57:52.037Z,999.90
2023-05-21T12:58:57.681Z,999.90
2023-05-21T13:00:01.195Z,999.90
2023-05-21T13:01:06.036Z,999.90
2023-05-21T13:02:08.217Z,999.90
2023-05-21T13:03:14.432Z,999.90
2023-05-21T13:04:19.754Z,344.92
2023-05-21T13:05:24.578Z,773.70
2023-05-21T13:06:26.727Z,783.45
2023-05-21T13:07:33.284Z,813.78
2023-05-21T13:08:36.057Z,783.63
2023-05-21T13:09:40.775Z,822.13
2023-05-21T13:10:45.753Z,823.75
2023-05-21T13:11:47.852Z,840.88
2023-05-21T13:12:52.627Z,841.08
2023-05-21T13:13:54.986Z,799.63
2023-05-21T13:15:01.447Z,741.30
2023-05-21T13:16:03.665Z,796.13
2023-05-21T13:17:08.606Z,800.97
2023-05-21T13:18:12.493Z,778.20
2023-05-21T13:19:17.655Z,702.70
2023-05-21T13:20:27.865Z,677.03
2023-05-21T13:21:29.992Z,676.42
2023-05-21T13:22:35.647Z,679.28
2023-05-21T13:23:37.806Z,669.13
2023-05-21T13:24:42.487Z,663.22
2023-05-21T13:25:44.744Z,580.67
2023-05-21T13:26:49.473Z,675.03
2023-05-21T13:27:53.282Z,694.13
2023-05-21T13:28:58.028Z,735.05
2023-05-21T13:30:00.259Z,713.28
2023-05-21T13:31:04.990Z,685.22
2023-05-21T13:32:10.239Z,704.55
2023-05-21T13:33:13.394Z,677.08
2023-05-21T13:34:18.280Z,710.80
2023-05-21T13:35:23.170Z,722.22
2023-05-21T13:36:27.956Z,695.20
2023-05-21T13:37:30.143Z,708.78
2023-05-21T13:38:34.909Z,697.53
2023-05-21T13:39:37.895Z,731.60
2023-05-21T13:40:42.952Z,749.60
2023-05-21T13:41:49.094Z,678.45
2023-05-21T13:42:51.458Z,606.85
2023-05-21T13:43:56.202Z,613.70
2023-05-21T13:45:01.383Z,528.50
2023-05-21T13:46:06.445Z,567.00
2023-05-21T13:47:10.538Z,506.20
2023-05-21T13:48:15.274Z,491.10
2023-05-21T13:49:17.554Z,481.08
2023-05-21T13:50:24.942Z,476.83
2023-05-21T13:52:35.819Z,483.83
2023-05-21T13:53:40.600Z,494.95
2023-05-21T13:54:46.260Z,482.60